sensor_id;sensor_type;location;lat;lon;timestamp;P1;durP1;ratioP1;P2;durP2;ratioP2
27505;SDS011;14939;43.596;1.320;2023-09-30T00:02:22;14.13;;;6.45;;
27505;SDS011;14939;43.596;1.320;2023-09-30T00:04:47;15.40;;;6.15;;
27505;SDS011;14939;43.596;1.320;2023-09-30T00:07:13;16.45;;;6.35;;
27505;SDS011;14939;43.596;1.320;2023-09-30T00:09:39;16.35;;;6.32;;
27505;SDS011;14939;43.596;1.320;2023-09-30T00:12:05;14.90;;;5.82;;
27505;SDS011;14939;43.596;1.320;2023-09-30T00:14:31;17.42;;;6.43;;
27505;SDS011;14939;43.596;1.320;2023-09-30T00:16:57;14.23;;;6.22;;
27505;SDS011;14939;43.596;1.320;2023-09-30T00:19:23;16.35;;;6.47;;
27505;SDS011;14939;43.596;1.320;2023-09-30T00:21:49;17.55;;;6.35;;
27505;SDS011;14939;43.596;1.320;2023-09-30T00:24:14;16.95;;;6.20;;
27505;SDS011;14939;43.596;1.320;2023-09-30T00:26:40;16.92;;;6.43;;
27505;SDS011;14939;43.596;1.320;2023-09-30T00:29:06;15.38;;;5.82;;
27505;SDS011;14939;43.596;1.320;2023-09-30T00:31:32;16.77;;;6.65;;
27505;SDS011;14939;43.596;1.320;2023-09-30T00:33:57;17.15;;;6.45;;
27505;SDS011;14939;43.596;1.320;2023-09-30T00:36:23;18.42;;;6.40;;
27505;SDS011;14939;43.596;1.320;2023-09-30T00:38:49;17.63;;;6.43;;
27505;SDS011;14939;43.596;1.320;2023-09-30T00:41:14;20.27;;;6.80;;
27505;SDS011;14939;43.596;1.320;2023-09-30T00:43:40;14.20;;;6.10;;
27505;SDS011;14939;43.596;1.320;2023-09-30T00:48:39;15.50;;;6.22;;
27505;SDS011;14939;43.596;1.320;2023-09-30T00:51:05;18.05;;;6.18;;
27505;SDS011;14939;43.596;1.320;2023-09-30T00:53:31;17.20;;;6.72;;
27505;SDS011;14939;43.596;1.320;2023-09-30T00:55:57;14.50;;;6.05;;
27505;SDS011;14939;43.596;1.320;2023-09-30T00:58:25;16.40;;;6.80;;
27505;SDS011;14939;43.596;1.320;2023-09-30T01:00:53;13.77;;;5.90;;
27505;SDS011;14939;43.596;1.320;2023-09-30T01:03:21;14.10;;;6.05;;
27505;SDS011;14939;43.596;1.320;2023-09-30T01:05:47;14.32;;;5.90;;
27505;SDS011;14939;43.596;1.320;2023-09-30T01:08:14;15.85;;;6.10;;
27505;SDS011;14939;43.596;1.320;2023-09-30T01:10:41;14.43;;;6.43;;
27505;SDS011;14939;43.596;1.320;2023-09-30T01:13:07;21.55;;;6.57;;
27505;SDS011;14939;43.596;1.320;2023-09-30T01:15:32;17.98;;;6.45;;
27505;SDS011;14939;43.596;1.320;2023-09-30T01:17:58;17.15;;;6.30;;
27505;SDS011;14939;43.596;1.320;2023-09-30T01:20:23;11.20;;;5.30;;
27505;SDS011;14939;43.596;1.320;2023-09-30T01:22:49;14.02;;;6.05;;
27505;SDS011;14939;43.596;1.320;2023-09-30T01:25:15;13.90;;;6.25;;
27505;SDS011;14939;43.596;1.320;2023-09-30T01:27:41;16.08;;;6.35;;
27505;SDS011;14939;43.596;1.320;2023-09-30T01:30:08;16.05;;;6.38;;
27505;SDS011;14939;43.596;1.320;2023-09-30T01:32:36;14.80;;;6.38;;
27505;SDS011;14939;43.596;1.320;2023-09-30T01:35:02;15.52;;;6.47;;
27505;SDS011;14939;43.596;1.320;2023-09-30T01:37:28;16.85;;;7.00;;
27505;SDS011;14939;43.596;1.320;2023-09-30T01:39:53;16.00;;;6.80;;
27505;SDS011;14939;43.596;1.320;2023-09-30T01:42:20;14.60;;;6.07;;
27505;SDS011;14939;43.596;1.320;2023-09-30T01:44:46;17.00;;;7.00;;
27505;SDS011;14939;43.596;1.320;2023-09-30T01:47:12;16.33;;;6.07;;
27505;SDS011;14939;43.596;1.320;2023-09-30T01:49:37;15.07;;;6.40;;
27505;SDS011;14939;43.596;1.320;2023-09-30T01:52:03;15.05;;;6.28;;
27505;SDS011;14939;43.596;1.320;2023-09-30T01:54:29;16.67;;;6.18;;
27505;SDS011;14939;43.596;1.320;2023-09-30T01:56:55;19.42;;;6.70;;
27505;SDS011;14939;43.596;1.320;2023-09-30T01:59:20;16.80;;;6.13;;
27505;SDS011;14939;43.596;1.320;2023-09-30T02:01:46;15.18;;;6.53;;
27505;SDS011;14939;43.596;1.320;2023-09-30T02:04:13;16.92;;;6.15;;
27505;SDS011;14939;43.596;1.320;2023-09-30T02:06:40;16.52;;;6.32;;
27505;SDS011;14939;43.596;1.320;2023-09-30T02:09:08;17.67;;;6.30;;
27505;SDS011;14939;43.596;1.320;2023-09-30T02:11:35;14.48;;;6.38;;
27505;SDS011;14939;43.596;1.320;2023-09-30T02:14:02;16.73;;;6.15;;
27505;SDS011;14939;43.596;1.320;2023-09-30T02:16:27;16.00;;;6.78;;
27505;SDS011;14939;43.596;1.320;2023-09-30T02:18:53;17.15;;;6.60;;
27505;SDS011;14939;43.596;1.320;2023-09-30T02:21:19;15.70;;;7.10;;
27505;SDS011;14939;43.596;1.320;2023-09-30T02:23:46;15.90;;;6.75;;
27505;SDS011;14939;43.596;1.320;2023-09-30T02:26:16;16.17;;;6.70;;
27505;SDS011;14939;43.596;1.320;2023-09-30T02:28:42;15.57;;;6.57;;
27505;SDS011;14939;43.596;1.320;2023-09-30T02:31:08;15.07;;;6.72;;
27505;SDS011;14939;43.596;1.320;2023-09-30T02:33:34;16.40;;;6.53;;
27505;SDS011;14939;43.596;1.320;2023-09-30T02:36:06;17.35;;;7.25;;
27505;SDS011;14939;43.596;1.320;2023-09-30T02:38:32;16.75;;;6.72;;
27505;SDS011;14939;43.596;1.320;2023-09-30T02:40:58;17.88;;;7.28;;
27505;SDS011;14939;43.596;1.320;2023-09-30T02:43:24;16.20;;;7.13;;
27505;SDS011;14939;43.596;1.320;2023-09-30T02:45:49;19.73;;;6.85;;
27505;SDS011;14939;43.596;1.320;2023-09-30T02:48:15;15.32;;;7.10;;
27505;SDS011;14939;43.596;1.320;2023-09-30T02:50:41;16.52;;;6.82;;
27505;SDS011;14939;43.596;1.320;2023-09-30T02:53:10;14.68;;;6.75;;
27505;SDS011;14939;43.596;1.320;2023-09-30T02:55:37;15.60;;;6.22;;
27505;SDS011;14939;43.596;1.320;2023-09-30T02:58:03;15.65;;;6.75;;
27505;SDS011;14939;43.596;1.320;2023-09-30T03:00:28;17.38;;;7.25;;
27505;SDS011;14939;43.596;1.320;2023-09-30T03:02:58;19.20;;;6.80;;
27505;SDS011;14939;43.596;1.320;2023-09-30T03:05:25;13.70;;;6.03;;
27505;SDS011;14939;43.596;1.320;2023-09-30T03:07:52;15.93;;;6.15;;
27505;SDS011;14939;43.596;1.320;2023-09-30T03:10:18;13.80;;;6.45;;
27505;SDS011;14939;43.596;1.320;2023-09-30T03:12:51;16.75;;;6.78;;
27505;SDS011;14939;43.596;1.320;2023-09-30T03:15:20;15.20;;;6.72;;
27505;SDS011;14939;43.596;1.320;2023-09-30T03:17:46;17.15;;;6.82;;
27505;SDS011;14939;43.596;1.320;2023-09-30T03:20:12;15.38;;;6.80;;
27505;SDS011;14939;43.596;1.320;2023-09-30T03:22:39;15.90;;;7.25;;
27505;SDS011;14939;43.596;1.320;2023-09-30T03:25:07;15.52;;;6.78;;
27505;SDS011;14939;43.596;1.320;2023-09-30T03:27:35;15.48;;;6.50;;
27505;SDS011;14939;43.596;1.320;2023-09-30T03:30:02;17.10;;;6.45;;
27505;SDS011;14939;43.596;1.320;2023-09-30T03:32:30;25.48;;;6.95;;
27505;SDS011;14939;43.596;1.320;2023-09-30T03:34:58;18.17;;;6.93;;
27505;SDS011;14939;43.596;1.320;2023-09-30T03:37:27;16.02;;;6.70;;
27505;SDS011;14939;43.596;1.320;2023-09-30T03:39:56;18.88;;;6.53;;
27505;SDS011;14939;43.596;1.320;2023-09-30T03:42:21;18.63;;;6.28;;
27505;SDS011;14939;43.596;1.320;2023-09-30T03:44:47;19.05;;;7.50;;
27505;SDS011;14939;43.596;1.320;2023-09-30T03:47:14;15.88;;;6.57;;
27505;SDS011;14939;43.596;1.320;2023-09-30T03:49:43;14.40;;;6.43;;
27505;SDS011;14939;43.596;1.320;2023-09-30T03:52:09;17.85;;;6.82;;
27505;SDS011;14939;43.596;1.320;2023-09-30T03:54:36;14.75;;;6.03;;
27505;SDS011;14939;43.596;1.320;2023-09-30T03:57:02;17.65;;;6.55;;
27505;SDS011;14939;43.596;1.320;2023-09-30T03:59:28;19.92;;;6.93;;
27505;SDS011;14939;43.596;1.320;2023-09-30T04:01:55;15.85;;;6.28;;
27505;SDS011;14939;43.596;1.320;2023-09-30T04:04:23;17.58;;;6.65;;
27505;SDS011;14939;43.596;1.320;2023-09-30T04:06:49;16.88;;;6.88;;
27505;SDS011;14939;43.596;1.320;2023-09-30T04:09:16;13.13;;;6.40;;
27505;SDS011;14939;43.596;1.320;2023-09-30T04:11:42;17.13;;;6.65;;
27505;SDS011;14939;43.596;1.320;2023-09-30T04:14:08;17.60;;;6.70;;
27505;SDS011;14939;43.596;1.320;2023-09-30T04:16:35;15.35;;;6.68;;
27505;SDS011;14939;43.596;1.320;2023-09-30T04:19:02;15.55;;;6.43;;
27505;SDS011;14939;43.596;1.320;2023-09-30T04:21:29;14.73;;;6.53;;
27505;SDS011;14939;43.596;1.320;2023-09-30T04:23:58;15.90;;;6.70;;
27505;SDS011;14939;43.596;1.320;2023-09-30T04:26:24;14.63;;;6.75;;
27505;SDS011;14939;43.596;1.320;2023-09-30T04:28:50;15.43;;;5.90;;
27505;SDS011;14939;43.596;1.320;2023-09-30T04:31:16;15.15;;;6.47;;
27505;SDS011;14939;43.596;1.320;2023-09-30T04:33:43;14.48;;;5.72;;
27505;SDS011;14939;43.596;1.320;2023-09-30T04:36:08;15.07;;;5.93;;
27505;SDS011;14939;43.596;1.320;2023-09-30T04:38:35;16.05;;;6.00;;
27505;SDS011;14939;43.596;1.320;2023-09-30T04:41:03;13.10;;;5.90;;
27505;SDS011;14939;43.596;1.320;2023-09-30T04:43:32;14.05;;;6.43;;
27505;SDS011;14939;43.596;1.320;2023-09-30T04:45:58;13.18;;;6.15;;
27505;SDS011;14939;43.596;1.320;2023-09-30T04:48:24;15.57;;;6.10;;
27505;SDS011;14939;43.596;1.320;2023-09-30T04:50:50;17.38;;;6.65;;
27505;SDS011;14939;43.596;1.320;2023-09-30T04:53:16;15.38;;;6.32;;
27505;SDS011;14939;43.596;1.320;2023-09-30T04:55:46;16.83;;;6.35;;
27505;SDS011;14939;43.596;1.320;2023-09-30T04:58:15;15.98;;;7.28;;
27505;SDS011;14939;43.596;1.320;2023-09-30T05:00:41;15.32;;;6.35;;
27505;SDS011;14939;43.596;1.320;2023-09-30T05:03:08;17.33;;;6.40;;
27505;SDS011;14939;43.596;1.320;2023-09-30T05:05:33;19.20;;;6.65;;
27505;SDS011;14939;43.596;1.320;2023-09-30T05:08:00;17.02;;;6.50;;
27505;SDS011;14939;43.596;1.320;2023-09-30T05:10:26;16.83;;;6.93;;
27505;SDS011;14939;43.596;1.320;2023-09-30T05:12:52;17.50;;;7.03;;
27505;SDS011;14939;43.596;1.320;2023-09-30T05:15:20;16.48;;;6.78;;
27505;SDS011;14939;43.596;1.320;2023-09-30T05:17:46;15.80;;;6.63;;
27505;SDS011;14939;43.596;1.320;2023-09-30T05:20:13;16.65;;;6.45;;
27505;SDS011;14939;43.596;1.320;2023-09-30T05:22:42;19.05;;;6.55;;
27505;SDS011;14939;43.596;1.320;2023-09-30T05:25:14;17.25;;;6.45;;
27505;SDS011;14939;43.596;1.320;2023-09-30T05:27:41;15.65;;;6.35;;
27505;SDS011;14939;43.596;1.320;2023-09-30T05:30:07;15.32;;;6.90;;
27505;SDS011;14939;43.596;1.320;2023-09-30T05:32:34;19.35;;;6.50;;
27505;SDS011;14939;43.596;1.320;2023-09-30T05:35:03;13.98;;;6.03;;
27505;SDS011;14939;43.596;1.320;2023-09-30T05:37:30;14.38;;;6.00;;
27505;SDS011;14939;43.596;1.320;2023-09-30T05:39:55;14.63;;;6.38;;
27505;SDS011;14939;43.596;1.320;2023-09-30T05:42:21;12.95;;;5.93;;
27505;SDS011;14939;43.596;1.320;2023-09-30T05:44:47;19.05;;;6.65;;
27505;SDS011;14939;43.596;1.320;2023-09-30T05:47:13;14.43;;;6.18;;
27505;SDS011;14939;43.596;1.320;2023-09-30T05:49:40;14.55;;;6.22;;
27505;SDS011;14939;43.596;1.320;2023-09-30T05:52:06;12.98;;;5.82;;
27505;SDS011;14939;43.596;1.320;2023-09-30T05:54:32;15.15;;;6.20;;
27505;SDS011;14939;43.596;1.320;2023-09-30T05:56:58;14.50;;;6.78;;
27505;SDS011;14939;43.596;1.320;2023-09-30T05:59:25;15.45;;;6.60;;
27505;SDS011;14939;43.596;1.320;2023-09-30T06:01:53;16.13;;;6.45;;
27505;SDS011;14939;43.596;1.320;2023-09-30T06:04:18;13.85;;;5.72;;
27505;SDS011;14939;43.596;1.320;2023-09-30T06:06:46;16.23;;;6.35;;
27505;SDS011;14939;43.596;1.320;2023-09-30T06:09:11;13.02;;;6.10;;
27505;SDS011;14939;43.596;1.320;2023-09-30T06:11:37;15.20;;;5.88;;
27505;SDS011;14939;43.596;1.320;2023-09-30T06:14:02;14.98;;;5.78;;
27505;SDS011;14939;43.596;1.320;2023-09-30T06:16:31;14.75;;;5.55;;
27505;SDS011;14939;43.596;1.320;2023-09-30T06:18:57;14.45;;;5.85;;
27505;SDS011;14939;43.596;1.320;2023-09-30T06:21:23;12.90;;;5.55;;
27505;SDS011;14939;43.596;1.320;2023-09-30T06:23:50;14.52;;;5.95;;
27505;SDS011;14939;43.596;1.320;2023-09-30T06:26:19;15.38;;;6.10;;
27505;SDS011;14939;43.596;1.320;2023-09-30T06:28:46;12.45;;;5.57;;
27505;SDS011;14939;43.596;1.320;2023-09-30T06:31:12;13.00;;;5.95;;
27505;SDS011;14939;43.596;1.320;2023-09-30T06:33:39;13.25;;;5.75;;
27505;SDS011;14939;43.596;1.320;2023-09-30T06:36:09;18.52;;;6.47;;
27505;SDS011;14939;43.596;1.320;2023-09-30T06:38:35;15.90;;;6.10;;
27505;SDS011;14939;43.596;1.320;2023-09-30T06:41:02;18.08;;;6.15;;
27505;SDS011;14939;43.596;1.320;2023-09-30T06:43:27;128.38;;;10.60;;
27505;SDS011;14939;43.596;1.320;2023-09-30T06:45:53;61.40;;;7.50;;
27505;SDS011;14939;43.596;1.320;2023-09-30T06:48:19;13.30;;;5.82;;
27505;SDS011;14939;43.596;1.320;2023-09-30T06:50:46;11.18;;;5.75;;
27505;SDS011;14939;43.596;1.320;2023-09-30T06:53:15;12.40;;;6.13;;
27505;SDS011;14939;43.596;1.320;2023-09-30T06:55:41;30.13;;;7.05;;
27505;SDS011;14939;43.596;1.320;2023-09-30T06:58:08;13.88;;;6.18;;
27505;SDS011;14939;43.596;1.320;2023-09-30T07:00:35;43.55;;;7.00;;
27505;SDS011;14939;43.596;1.320;2023-09-30T07:03:01;18.42;;;5.78;;
27505;SDS011;14939;43.596;1.320;2023-09-30T07:05:27;14.27;;;5.80;;
27505;SDS011;14939;43.596;1.320;2023-09-30T07:07:53;14.95;;;5.88;;
27505;SDS011;14939;43.596;1.320;2023-09-30T07:10:19;17.73;;;6.13;;
27505;SDS011;14939;43.596;1.320;2023-09-30T07:12:45;13.07;;;5.63;;
27505;SDS011;14939;43.596;1.320;2023-09-30T07:15:11;12.40;;;5.78;;
27505;SDS011;14939;43.596;1.320;2023-09-30T07:17:36;15.55;;;5.75;;
27505;SDS011;14939;43.596;1.320;2023-09-30T07:20:03;13.98;;;5.78;;
27505;SDS011;14939;43.596;1.320;2023-09-30T07:22:30;19.08;;;5.90;;
27505;SDS011;14939;43.596;1.320;2023-09-30T07:24:56;12.95;;;5.85;;
27505;SDS011;14939;43.596;1.320;2023-09-30T07:27:23;12.77;;;5.63;;
27505;SDS011;14939;43.596;1.320;2023-09-30T07:29:49;14.23;;;5.43;;
27505;SDS011;14939;43.596;1.320;2023-09-30T07:32:15;13.05;;;5.53;;
27505;SDS011;14939;43.596;1.320;2023-09-30T07:34:41;11.68;;;5.90;;
27505;SDS011;14939;43.596;1.320;2023-09-30T07:37:06;16.33;;;6.05;;
27505;SDS011;14939;43.596;1.320;2023-09-30T07:39:32;13.10;;;5.53;;
27505;SDS011;14939;43.596;1.320;2023-09-30T07:41:57;12.25;;;5.32;;
27505;SDS011;14939;43.596;1.320;2023-09-30T07:44:23;12.25;;;5.32;;
27505;SDS011;14939;43.596;1.320;2023-09-30T07:46:49;12.68;;;5.55;;
27505;SDS011;14939;43.596;1.320;2023-09-30T07:49:14;15.32;;;5.95;;
27505;SDS011;14939;43.596;1.320;2023-09-30T07:51:40;22.67;;;6.38;;
27505;SDS011;14939;43.596;1.320;2023-09-30T07:54:06;18.45;;;6.07;;
27505;SDS011;14939;43.596;1.320;2023-09-30T07:56:31;15.25;;;5.75;;
27505;SDS011;14939;43.596;1.320;2023-09-30T07:58:57;13.73;;;6.00;;
27505;SDS011;14939;43.596;1.320;2023-09-30T08:01:23;15.27;;;6.50;;
27505;SDS011;14939;43.596;1.320;2023-09-30T08:03:48;14.18;;;5.78;;
27505;SDS011;14939;43.596;1.320;2023-09-30T08:06:14;17.92;;;6.47;;
27505;SDS011;14939;43.596;1.320;2023-09-30T08:08:40;15.70;;;6.00;;
27505;SDS011;14939;43.596;1.320;2023-09-30T08:11:05;14.60;;;5.90;;
27505;SDS011;14939;43.596;1.320;2023-09-30T08:13:34;14.68;;;6.05;;
27505;SDS011;14939;43.596;1.320;2023-09-30T08:16:00;12.57;;;5.80;;
27505;SDS011;14939;43.596;1.320;2023-09-30T08:18:26;16.67;;;6.03;;
27505;SDS011;14939;43.596;1.320;2023-09-30T08:20:51;15.50;;;6.18;;
27505;SDS011;14939;43.596;1.320;2023-09-30T08:23:17;14.45;;;5.63;;
27505;SDS011;14939;43.596;1.320;2023-09-30T08:25:43;16.27;;;5.47;;
27505;SDS011;14939;43.596;1.320;2023-09-30T08:28:09;14.35;;;5.03;;
27505;SDS011;14939;43.596;1.320;2023-09-30T08:30:35;12.75;;;5.60;;
27505;SDS011;14939;43.596;1.320;2023-09-30T08:33:01;14.82;;;5.60;;
27505;SDS011;14939;43.596;1.320;2023-09-30T08:35:28;19.95;;;5.72;;
27505;SDS011;14939;43.596;1.320;2023-09-30T08:38:01;28.30;;;6.25;;
27505;SDS011;14939;43.596;1.320;2023-09-30T08:40:27;19.70;;;5.30;;
27505;SDS011;14939;43.596;1.320;2023-09-30T08:42:53;15.60;;;5.82;;
27505;SDS011;14939;43.596;1.320;2023-09-30T08:45:19;15.23;;;5.28;;
27505;SDS011;14939;43.596;1.320;2023-09-30T08:47:45;12.02;;;5.20;;
27505;SDS011;14939;43.596;1.320;2023-09-30T08:50:11;14.48;;;5.70;;
27505;SDS011;14939;43.596;1.320;2023-09-30T08:52:38;10.90;;;4.20;;
27505;SDS011;14939;43.596;1.320;2023-09-30T08:55:09;13.13;;;4.97;;
27505;SDS011;14939;43.596;1.320;2023-09-30T08:57:41;9.95;;;4.68;;
27505;SDS011;14939;43.596;1.320;2023-09-30T09:00:08;13.82;;;5.10;;
27505;SDS011;14939;43.596;1.320;2023-09-30T09:02:38;10.85;;;4.57;;
27505;SDS011;14939;43.596;1.320;2023-09-30T09:05:04;10.77;;;4.22;;
27505;SDS011;14939;43.596;1.320;2023-09-30T09:07:31;11.13;;;4.30;;
27505;SDS011;14939;43.596;1.320;2023-09-30T09:10:11;10.23;;;4.82;;
27505;SDS011;14939;43.596;1.320;2023-09-30T09:12:40;12.30;;;5.00;;
27505;SDS011;14939;43.596;1.320;2023-09-30T09:15:07;10.38;;;4.40;;
27505;SDS011;14939;43.596;1.320;2023-09-30T09:17:43;11.13;;;4.25;;
27505;SDS011;14939;43.596;1.320;2023-09-30T09:20:10;12.82;;;4.72;;
27505;SDS011;14939;43.596;1.320;2023-09-30T09:22:43;10.27;;;4.32;;
27505;SDS011;14939;43.596;1.320;2023-09-30T09:25:09;10.82;;;3.97;;
27505;SDS011;14939;43.596;1.320;2023-09-30T09:27:36;7.32;;;3.60;;
27505;SDS011;14939;43.596;1.320;2023-09-30T09:30:15;9.32;;;3.50;;
27505;SDS011;14939;43.596;1.320;2023-09-30T09:35:19;12.23;;;4.13;;
27505;SDS011;14939;43.596;1.320;2023-09-30T09:37:53;17.17;;;4.13;;
27505;SDS011;14939;43.596;1.320;2023-09-30T09:40:22;7.20;;;3.22;;
27505;SDS011;14939;43.596;1.320;2023-09-30T09:42:51;10.23;;;3.85;;
27505;SDS011;14939;43.596;1.320;2023-09-30T09:45:20;9.35;;;3.80;;
27505;SDS011;14939;43.596;1.320;2023-09-30T09:47:51;8.35;;;3.38;;
27505;SDS011;14939;43.596;1.320;2023-09-30T09:50:18;7.43;;;3.10;;
27505;SDS011;14939;43.596;1.320;2023-09-30T09:52:51;7.05;;;2.83;;
27505;SDS011;14939;43.596;1.320;2023-09-30T09:55:18;7.13;;;3.03;;
27505;SDS011;14939;43.596;1.320;2023-09-30T09:57:46;5.97;;;2.50;;
27505;SDS011;14939;43.596;1.320;2023-09-30T10:00:14;5.30;;;2.55;;
27505;SDS011;14939;43.596;1.320;2023-09-30T10:02:43;6.57;;;3.00;;
27505;SDS011;14939;43.596;1.320;2023-09-30T10:05:13;6.43;;;2.90;;
27505;SDS011;14939;43.596;1.320;2023-09-30T10:07:51;7.57;;;2.58;;
27505;SDS011;14939;43.596;1.320;2023-09-30T10:10:34;7.13;;;3.25;;
27505;SDS011;14939;43.596;1.320;2023-09-30T10:13:02;7.22;;;2.88;;
27505;SDS011;14939;43.596;1.320;2023-09-30T10:17:56;16.70;;;3.38;;
27505;SDS011;14939;43.596;1.320;2023-09-30T10:20:29;5.30;;;2.70;;
27505;SDS011;14939;43.596;1.320;2023-09-30T10:25:45;7.47;;;3.03;;
27505;SDS011;14939;43.596;1.320;2023-09-30T10:36:31;6.15;;;2.60;;
27505;SDS011;14939;43.596;1.320;2023-09-30T10:38:59;7.10;;;2.88;;
27505;SDS011;14939;43.596;1.320;2023-09-30T10:46:48;5.55;;;2.45;;
27505;SDS011;14939;43.596;1.320;2023-09-30T10:49:15;5.47;;;2.60;;
27505;SDS011;14939;43.596;1.320;2023-09-30T10:51:42;4.35;;;2.15;;
27505;SDS011;14939;43.596;1.320;2023-09-30T10:54:09;4.45;;;2.72;;
27505;SDS011;14939;43.596;1.320;2023-09-30T10:56:37;7.40;;;2.28;;
27505;SDS011;14939;43.596;1.320;2023-09-30T10:59:02;4.45;;;2.33;;
27505;SDS011;14939;43.596;1.320;2023-09-30T11:01:34;7.72;;;2.33;;
27505;SDS011;14939;43.596;1.320;2023-09-30T11:04:01;4.32;;;2.20;;
27505;SDS011;14939;43.596;1.320;2023-09-30T11:06:29;4.88;;;2.53;;
27505;SDS011;14939;43.596;1.320;2023-09-30T11:08:56;5.07;;;2.40;;
27505;SDS011;14939;43.596;1.320;2023-09-30T11:16:43;6.47;;;2.45;;
27505;SDS011;14939;43.596;1.320;2023-09-30T11:19:10;4.05;;;1.92;;
27505;SDS011;14939;43.596;1.320;2023-09-30T11:21:36;5.15;;;2.25;;
27505;SDS011;14939;43.596;1.320;2023-09-30T11:24:03;3.38;;;2.40;;
27505;SDS011;14939;43.596;1.320;2023-09-30T11:26:32;4.38;;;2.15;;
27505;SDS011;14939;43.596;1.320;2023-09-30T11:29:09;6.38;;;2.28;;
27505;SDS011;14939;43.596;1.320;2023-09-30T11:31:39;4.85;;;2.15;;
27505;SDS011;14939;43.596;1.320;2023-09-30T11:34:06;8.63;;;2.85;;
27505;SDS011;14939;43.596;1.320;2023-09-30T11:36:35;6.40;;;2.53;;
27505;SDS011;14939;43.596;1.320;2023-09-30T11:39:02;5.00;;;2.20;;
27505;SDS011;14939;43.596;1.320;2023-09-30T11:41:35;5.22;;;2.33;;
27505;SDS011;14939;43.596;1.320;2023-09-30T11:44:07;6.30;;;2.22;;
27505;SDS011;14939;43.596;1.320;2023-09-30T11:49:35;4.93;;;2.40;;
27505;SDS011;14939;43.596;1.320;2023-09-30T11:52:08;5.22;;;2.70;;
27505;SDS011;14939;43.596;1.320;2023-09-30T11:54:39;3.92;;;2.30;;
27505;SDS011;14939;43.596;1.320;2023-09-30T11:57:13;4.25;;;2.33;;
27505;SDS011;14939;43.596;1.320;2023-09-30T11:59:40;3.33;;;2.00;;
27505;SDS011;14939;43.596;1.320;2023-09-30T12:02:10;3.95;;;2.20;;
27505;SDS011;14939;43.596;1.320;2023-09-30T12:04:37;8.40;;;2.58;;
27505;SDS011;14939;43.596;1.320;2023-09-30T12:07:04;5.82;;;2.38;;
27505;SDS011;14939;43.596;1.320;2023-09-30T12:09:32;3.67;;;2.20;;
27505;SDS011;14939;43.596;1.320;2023-09-30T12:12:00;3.00;;;1.92;;
27505;SDS011;14939;43.596;1.320;2023-09-30T12:14:27;3.20;;;2.05;;
27505;SDS011;14939;43.596;1.320;2023-09-30T12:16:55;4.18;;;2.08;;
27505;SDS011;14939;43.596;1.320;2023-09-30T12:19:21;8.38;;;2.50;;
27505;SDS011;14939;43.596;1.320;2023-09-30T12:21:46;6.07;;;2.20;;
27505;SDS011;14939;43.596;1.320;2023-09-30T12:24:16;4.57;;;2.00;;
27505;SDS011;14939;43.596;1.320;2023-09-30T12:26:47;4.60;;;2.05;;
27505;SDS011;14939;43.596;1.320;2023-09-30T12:29:23;6.63;;;2.20;;
27505;SDS011;14939;43.596;1.320;2023-09-30T12:31:50;4.60;;;2.40;;
27505;SDS011;14939;43.596;1.320;2023-09-30T12:34:17;7.15;;;2.25;;
27505;SDS011;14939;43.596;1.320;2023-09-30T12:36:43;4.80;;;2.10;;
27505;SDS011;14939;43.596;1.320;2023-09-30T12:39:09;5.20;;;2.15;;
27505;SDS011;14939;43.596;1.320;2023-09-30T12:41:39;4.88;;;2.10;;
27505;SDS011;14939;43.596;1.320;2023-09-30T12:44:09;4.47;;;2.00;;
27505;SDS011;14939;43.596;1.320;2023-09-30T12:46:35;5.65;;;2.15;;
27505;SDS011;14939;43.596;1.320;2023-09-30T12:49:08;4.53;;;1.98;;
27505;SDS011;14939;43.596;1.320;2023-09-30T12:51:34;5.47;;;2.13;;
27505;SDS011;14939;43.596;1.320;2023-09-30T12:54:00;4.70;;;2.28;;
27505;SDS011;14939;43.596;1.320;2023-09-30T12:56:26;5.90;;;2.17;;
27505;SDS011;14939;43.596;1.320;2023-09-30T12:58:54;4.95;;;1.90;;
27505;SDS011;14939;43.596;1.320;2023-09-30T13:01:20;4.70;;;2.08;;
27505;SDS011;14939;43.596;1.320;2023-09-30T13:03:47;5.40;;;2.17;;
27505;SDS011;14939;43.596;1.320;2023-09-30T13:06:13;7.53;;;2.30;;
27505;SDS011;14939;43.596;1.320;2023-09-30T13:08:41;3.63;;;2.45;;
27505;SDS011;14939;43.596;1.320;2023-09-30T13:11:07;4.32;;;2.20;;
27505;SDS011;14939;43.596;1.320;2023-09-30T13:13:33;5.10;;;2.40;;
27505;SDS011;14939;43.596;1.320;2023-09-30T13:16:00;4.35;;;2.13;;
27505;SDS011;14939;43.596;1.320;2023-09-30T13:18:25;4.53;;;2.22;;
27505;SDS011;14939;43.596;1.320;2023-09-30T13:20:51;4.30;;;2.03;;
27505;SDS011;14939;43.596;1.320;2023-09-30T13:23:17;5.05;;;2.17;;
27505;SDS011;14939;43.596;1.320;2023-09-30T13:25:43;3.00;;;1.80;;
27505;SDS011;14939;43.596;1.320;2023-09-30T13:28:09;4.53;;;2.00;;
27505;SDS011;14939;43.596;1.320;2023-09-30T13:30:35;4.53;;;1.95;;
27505;SDS011;14939;43.596;1.320;2023-09-30T13:33:01;3.95;;;1.85;;
27505;SDS011;14939;43.596;1.320;2023-09-30T13:35:27;3.88;;;1.80;;
27505;SDS011;14939;43.596;1.320;2023-09-30T13:37:52;6.13;;;2.10;;
27505;SDS011;14939;43.596;1.320;2023-09-30T13:40:18;3.25;;;1.63;;
27505;SDS011;14939;43.596;1.320;2023-09-30T13:42:44;4.72;;;1.98;;
27505;SDS011;14939;43.596;1.320;2023-09-30T13:45:11;4.85;;;2.15;;
27505;SDS011;14939;43.596;1.320;2023-09-30T13:47:37;2.97;;;1.70;;
27505;SDS011;14939;43.596;1.320;2023-09-30T13:50:03;3.63;;;2.00;;
27505;SDS011;14939;43.596;1.320;2023-09-30T13:52:31;3.67;;;1.92;;
27505;SDS011;14939;43.596;1.320;2023-09-30T13:55:00;3.17;;;1.83;;
27505;SDS011;14939;43.596;1.320;2023-09-30T13:57:28;2.63;;;1.65;;
27505;SDS011;14939;43.596;1.320;2023-09-30T13:59:53;3.97;;;1.90;;
27505;SDS011;14939;43.596;1.320;2023-09-30T14:02:19;3.05;;;1.90;;
27505;SDS011;14939;43.596;1.320;2023-09-30T14:04:45;4.30;;;2.00;;
27505;SDS011;14939;43.596;1.320;2023-09-30T14:07:11;3.40;;;1.90;;
27505;SDS011;14939;43.596;1.320;2023-09-30T14:09:36;4.40;;;2.20;;
27505;SDS011;14939;43.596;1.320;2023-09-30T14:12:02;3.65;;;1.73;;
27505;SDS011;14939;43.596;1.320;2023-09-30T14:14:32;4.10;;;1.73;;
27505;SDS011;14939;43.596;1.320;2023-09-30T14:17:01;4.25;;;1.70;;
27505;SDS011;14939;43.596;1.320;2023-09-30T14:19:35;2.95;;;1.88;;
27505;SDS011;14939;43.596;1.320;2023-09-30T14:22:00;3.75;;;1.60;;
27505;SDS011;14939;43.596;1.320;2023-09-30T14:24:26;6.35;;;1.80;;
27505;SDS011;14939;43.596;1.320;2023-09-30T14:26:52;3.33;;;1.75;;
27505;SDS011;14939;43.596;1.320;2023-09-30T14:29:17;5.32;;;1.70;;
27505;SDS011;14939;43.596;1.320;2023-09-30T14:31:43;5.35;;;1.95;;
27505;SDS011;14939;43.596;1.320;2023-09-30T14:34:09;5.43;;;1.80;;
27505;SDS011;14939;43.596;1.320;2023-09-30T14:36:34;8.38;;;1.60;;
27505;SDS011;14939;43.596;1.320;2023-09-30T14:39:00;4.43;;;1.67;;
27505;SDS011;14939;43.596;1.320;2023-09-30T14:41:26;5.18;;;1.98;;
27505;SDS011;14939;43.596;1.320;2023-09-30T14:43:51;4.78;;;1.80;;
27505;SDS011;14939;43.596;1.320;2023-09-30T14:46:17;3.95;;;1.65;;
27505;SDS011;14939;43.596;1.320;2023-09-30T14:48:42;3.70;;;1.60;;
27505;SDS011;14939;43.596;1.320;2023-09-30T14:51:09;4.43;;;1.63;;
27505;SDS011;14939;43.596;1.320;2023-09-30T14:53:34;3.67;;;1.50;;
27505;SDS011;14939;43.596;1.320;2023-09-30T14:56:00;3.38;;;2.00;;
27505;SDS011;14939;43.596;1.320;2023-09-30T14:58:26;2.53;;;1.42;;
27505;SDS011;14939;43.596;1.320;2023-09-30T15:00:52;4.53;;;1.90;;
27505;SDS011;14939;43.596;1.320;2023-09-30T15:03:18;3.20;;;1.77;;
27505;SDS011;14939;43.596;1.320;2023-09-30T15:05:46;3.22;;;1.83;;
27505;SDS011;14939;43.596;1.320;2023-09-30T15:08:14;3.97;;;1.63;;
27505;SDS011;14939;43.596;1.320;2023-09-30T15:10:40;4.43;;;1.45;;